createdAt,value
2018-05-12T00:00:08.224Z,158.23
2018-05-12T00:02:37.432Z,145.13
2018-05-12T00:05:06.605Z,147.00
2018-05-12T00:07:35.798Z,136.70
2018-05-12T00:10:04.961Z,139.40
2018-05-12T00:12:34.110Z,142.17
2018-05-12T00:15:03.266Z,142.93
2018-05-12T00:17:32.434Z,138.73
2018-05-12T00:20:01.589Z,140.80
2018-05-12T00:22:30.760Z,153.10
2018-05-12T00:24:59.888Z,153.67
2018-05-12T00:27:29.034Z,161.23
2018-05-12T00:29:58.178Z,154.20
2018-05-12T00:32:27.324Z,151.53
2018-05-12T00:34:56.460Z,152.80
2018-05-12T00:37:25.608Z,151.00
2018-05-12T00:39:54.760Z,151.40
2018-05-12T00:42:24.435Z,156.80
2018-05-12T00:44:53.622Z,161.40
2018-05-12T00:47:22.743Z,163.97
2018-05-12T00:49:51.900Z,160.50
2018-05-12T00:52:21.065Z,155.63
2018-05-12T00:54:50.212Z,167.10
2018-05-12T00:57:19.356Z,152.37
2018-05-12T00:59:48.495Z,148.13
2018-05-12T01:02:17.668Z,147.93
2018-05-12T01:04:46.816Z,150.27
2018-05-12T01:07:15.962Z,148.87
2018-05-12T01:09:45.102Z,169.73
2018-05-12T01:12:14.247Z,170.20
2018-05-12T01:14:43.480Z,165.30
2018-05-12T01:17:12.633Z,164.80
2018-05-12T01:19:41.795Z,152.30
2018-05-12T01:22:10.935Z,153.97
2018-05-12T01:24:40.086Z,155.23
2018-05-12T01:27:09.263Z,157.07
2018-05-12T01:29:38.416Z,149.57
2018-05-12T01:32:07.550Z,151.47
2018-05-12T01:34:36.698Z,156.00
2018-05-12T01:37:05.843Z,164.30
2018-05-12T01:39:34.966Z,161.37
2018-05-12T01:42:04.123Z,155.83
2018-05-12T01:44:33.434Z,170.50
2018-05-12T01:47:02.565Z,165.47
2018-05-12T01:49:31.700Z,154.67
2018-05-12T01:52:00.820Z,153.17
2018-05-12T01:54:29.976Z,156.80
2018-05-12T01:56:59.116Z,159.10
2018-05-12T01:59:28.233Z,160.53
2018-05-12T02:01:57.374Z,162.83
2018-05-12T02:04:26.554Z,154.27
2018-05-12T02:06:55.739Z,156.37
2018-05-12T02:09:24.872Z,154.40
2018-05-12T02:11:54.052Z,165.17
2018-05-12T02:14:23.192Z,154.13
2018-05-12T02:16:52.371Z,160.03
2018-05-12T02:19:21.530Z,159.50
2018-05-12T02:21:50.647Z,155.00
2018-05-12T02:24:19.799Z,158.23
2018-05-12T02:26:48.945Z,157.23
2018-05-12T02:29:18.096Z,158.77
2018-05-12T02:31:47.245Z,148.63
2018-05-12T02:34:16.396Z,149.57
2018-05-12T02:36:45.592Z,149.77
2018-05-12T02:39:14.751Z,156.03
2018-05-12T02:41:43.920Z,161.40
2018-05-12T02:44:13.078Z,160.70
2018-05-12T02:46:42.196Z,169.47
2018-05-12T02:49:11.349Z,169.10
2018-05-12T02:51:40.646Z,167.67
2018-05-12T02:54:09.780Z,175.50
2018-05-12T02:56:38.930Z,174.70
2018-05-12T02:59:08.110Z,175.03
2018-05-12T03:01:37.266Z,168.13
2018-05-12T03:04:06.407Z,168.40
2018-05-12T03:06:35.576Z,169.40
2018-05-12T03:09:04.696Z,179.47
2018-05-12T03:11:33.831Z,187.80
2018-05-12T03:14:02.976Z,172.90
2018-05-12T03:16:32.123Z,175.30
2018-05-12T03:19:01.244Z,173.30
2018-05-12T03:21:30.443Z,179.30
2018-05-12T03:23:59.581Z,191.40
2018-05-12T03:26:28.722Z,184.03
2018-05-12T03:28:57.861Z,176.07
2018-05-12T03:31:27.045Z,185.17
2018-05-12T03:33:56.169Z,182.93
2018-05-12T03:36:25.330Z,182.47
2018-05-12T03:38:54.470Z,176.17
2018-05-12T03:41:23.613Z,188.87
2018-05-12T03:43:52.781Z,206.30
2018-05-12T03:46:22.012Z,214.47
2018-05-12T03:48:51.153Z,230.90
2018-05-12T03:51:20.320Z,227.40
2018-05-12T03:53:49.536Z,206.93
2018-05-12T03:56:18.672Z,198.37
2018-05-12T03:58:47.815Z,202.00
2018-05-12T04:01:16.948Z,198.60
2018-05-12T04:03:46.080Z,193.40
2018-05-12T04:06:21.165Z,186.43
2018-05-12T04:08:56.188Z,172.60
2018-05-12T04:11:31.145Z,168.93
2018-05-12T04:14:00.304Z,171.73
2018-05-12T04:16:29.415Z,175.53
2018-05-12T04:18:58.597Z,170.53
2018-05-12T04:21:27.742Z,169.80
2018-05-12T04:23:56.893Z,172.50
2018-05-12T04:26:26.012Z,172.30
2018-05-12T04:28:55.141Z,182.50
2018-05-12T04:31:24.303Z,186.13
2018-05-12T04:33:53.455Z,183.70
2018-05-12T04:36:22.595Z,173.13
2018-05-12T04:38:51.761Z,161.60
2018-05-12T04:41:20.885Z,175.60
2018-05-12T04:43:50.001Z,173.10
2018-05-12T04:46:19.226Z,169.77
2018-05-12T04:48:48.386Z,157.30
2018-05-12T04:51:17.573Z,159.37
2018-05-12T04:53:46.732Z,161.43
2018-05-12T04:56:15.889Z,157.27
2018-05-12T04:58:45.012Z,161.53
2018-05-12T05:01:14.123Z,166.73
2018-05-12T05:03:43.279Z,154.57
2018-05-12T05:06:12.460Z,155.30
2018-05-12T05:08:41.600Z,153.00
2018-05-12T05:11:10.754Z,136.93
2018-05-12T05:13:39.904Z,131.60
2018-05-12T05:16:09.016Z,127.20
2018-05-12T05:18:38.158Z,126.17
2018-05-12T05:21:07.278Z,125.47
2018-05-12T05:23:36.413Z,124.97
2018-05-12T05:26:05.596Z,119.97
2018-05-12T05:28:35.937Z,126.53
2018-05-12T05:31:05.255Z,130.77
2018-05-12T05:33:34.385Z,119.13
2018-05-12T05:36:03.532Z,119.67
2018-05-12T05:38:32.711Z,122.93
2018-05-12T05:41:01.849Z,122.03
2018-05-12T05:43:31.005Z,113.20
2018-05-12T05:46:00.125Z,114.90
2018-05-12T05:48:29.251Z,111.97
2018-05-12T05:50:58.417Z,112.97
2018-05-12T05:53:27.602Z,116.70
2018-05-12T05:55:56.751Z,115.77
2018-05-12T05:58:25.893Z,111.63
2018-05-12T06:00:55.140Z,113.83
2018-05-12T06:03:24.315Z,111.47
2018-05-12T06:05:53.500Z,116.50
2018-05-12T06:08:22.636Z,113.97
2018-05-12T06:10:51.780Z,112.10
2018-05-12T06:13:20.934Z,108.67
2018-05-12T06:15:50.075Z,118.90
2018-05-12T06:18:19.227Z,123.67
2018-05-12T06:20:48.372Z,125.23
2018-05-12T06:23:17.524Z,121.20
2018-05-12T06:25:46.696Z,125.67
2018-05-12T06:28:15.836Z,116.47
2018-05-12T06:30:44.976Z,113.47
2018-05-12T06:33:14.312Z,108.97
2018-05-12T06:35:43.399Z,108.83
2018-05-12T06:38:12.565Z,111.70
2018-05-12T06:40:41.718Z,109.03
2018-05-12T06:43:10.933Z,111.90
2018-05-12T06:45:40.085Z,111.20
2018-05-12T06:48:09.241Z,109.37
2018-05-12T06:50:38.412Z,109.80
2018-05-12T06:53:07.556Z,111.37
2018-05-12T06:55:36.700Z,106.60
2018-05-12T06:58:05.847Z,107.10
2018-05-12T07:00:35.030Z,107.47
2018-05-12T07:03:04.201Z,109.87
2018-05-12T07:05:33.378Z,108.93
2018-05-12T07:08:02.565Z,103.47
2018-05-12T07:10:31.712Z,106.10
2018-05-12T07:13:00.831Z,105.20
2018-05-12T07:15:29.988Z,103.23
2018-05-12T07:17:59.129Z,112.10
2018-05-12T07:20:28.240Z,104.60
2018-05-12T07:22:57.404Z,107.70
2018-05-12T07:25:26.578Z,101.30
2018-05-12T07:27:55.764Z,101.77
2018-05-12T07:30:24.906Z,104.37
2018-05-12T07:32:54.049Z,101.87
2018-05-12T07:35:23.225Z,99.80
2018-05-12T07:37:52.402Z,97.70
2018-05-12T07:40:21.511Z,100.13
2018-05-12T07:42:50.656Z,100.07
2018-05-12T07:45:19.840Z,101.67
2018-05-12T07:47:49.040Z,102.77
2018-05-12T07:50:18.188Z,102.07
2018-05-12T07:52:47.316Z,106.03
2018-05-12T07:55:16.477Z,100.07
2018-05-12T07:57:45.608Z,101.90
2018-05-12T08:00:14.872Z,92.67
2018-05-12T08:02:44.028Z,92.97
2018-05-12T08:05:13.208Z,93.70
2018-05-12T08:07:42.379Z,95.30
2018-05-12T08:10:11.554Z,89.40
2018-05-12T08:12:40.701Z,91.03
2018-05-12T08:15:10.008Z,89.23
2018-05-12T08:17:39.163Z,91.13
2018-05-12T08:20:08.293Z,93.50
2018-05-12T08:22:37.435Z,91.50
2018-05-12T08:25:06.592Z,92.23
2018-05-12T08:27:35.714Z,91.70
2018-05-12T08:30:04.894Z,92.33
2018-05-12T08:32:34.047Z,89.93
2018-05-12T08:35:03.191Z,87.23
2018-05-12T08:37:32.324Z,94.37
2018-05-12T08:40:01.503Z,92.63
2018-05-12T08:42:30.689Z,94.07
2018-05-12T08:44:59.919Z,94.57
2018-05-12T08:47:29.090Z,91.17
2018-05-12T08:49:58.288Z,97.87
2018-05-12T08:52:27.427Z,87.20
2018-05-12T08:54:56.559Z,90.57
2018-05-12T08:57:25.709Z,95.00
2018-05-12T08:59:54.850Z,89.20
2018-05-12T09:02:23.980Z,89.37
2018-05-12T09:04:53.126Z,90.00
2018-05-12T09:07:22.275Z,90.63
2018-05-12T09:09:51.423Z,89.27
2018-05-12T09:12:20.577Z,91.17
2018-05-12T09:14:49.716Z,89.87
2018-05-12T09:17:19.286Z,91.20
2018-05-12T09:19:48.443Z,89.53
2018-05-12T09:22:17.594Z,85.70
2018-05-12T09:24:46.711Z,84.37
2018-05-12T09:27:15.872Z,85.23
2018-05-12T09:29:44.980Z,82.07
2018-05-12T09:32:14.099Z,81.60
2018-05-12T09:34:43.240Z,83.00
2018-05-12T09:37:12.453Z,83.60
2018-05-12T09:39:41.567Z,80.70
2018-05-12T09:42:10.721Z,82.43
2018-05-12T09:44:39.820Z,78.67
2018-05-12T09:47:08.983Z,81.60
2018-05-12T09:49:38.112Z,81.80
2018-05-12T09:52:07.253Z,83.17
2018-05-12T09:54:36.400Z,81.37
2018-05-12T09:57:05.540Z,81.47
2018-05-12T09:59:34.714Z,79.33
2018-05-12T10:02:03.859Z,78.47
2018-05-12T10:04:32.997Z,76.50
2018-05-12T10:07:02.120Z,75.10
2018-05-12T10:09:31.327Z,75.53
2018-05-12T10:12:00.437Z,77.10
2018-05-12T10:14:29.576Z,76.47
2018-05-12T10:16:58.731Z,77.17
2018-05-12T10:19:27.870Z,80.57
2018-05-12T10:21:57.016Z,76.77
2018-05-12T10:24:26.187Z,76.50
2018-05-12T10:26:55.328Z,83.00
2018-05-12T10:29:24.450Z,78.07
2018-05-12T10:31:53.577Z,75.20
2018-05-12T10:34:22.739Z,74.27
2018-05-12T10:36:51.856Z,74.13
2018-05-12T10:39:20.987Z,81.60
2018-05-12T10:41:50.165Z,80.70
2018-05-12T10:44:19.306Z,75.40
2018-05-12T10:46:48.448Z,75.50
2018-05-12T10:49:17.600Z,77.57
2018-05-12T10:51:46.756Z,75.00
2018-05-12T10:54:15.896Z,82.00
2018-05-12T10:56:45.080Z,76.20
2018-05-12T10:59:14.221Z,74.90
2018-05-12T11:01:43.349Z,76.23
2018-05-12T11:04:12.505Z,74.53
2018-05-12T11:06:41.668Z,75.07
2018-05-12T11:09:10.848Z,74.40
2018-05-12T11:11:39.979Z,78.00
2018-05-12T11:14:09.181Z,75.37
2018-05-12T11:16:38.325Z,73.50
2018-05-12T11:19:07.445Z,78.40
2018-05-12T11:21:36.633Z,74.17
2018-05-12T11:24:05.747Z,77.80
2018-05-12T11:26:35.002Z,72.60
2018-05-12T11:29:04.069Z,73.73
2018-05-12T11:31:33.201Z,73.47
2018-05-12T11:34:02.352Z,75.67
2018-05-12T11:36:31.461Z,74.50
2018-05-12T11:39:00.580Z,74.00
2018-05-12T11:41:29.790Z,73.10
2018-05-12T11:43:58.913Z,73.90
2018-05-12T11:46:28.041Z,76.00
2018-05-12T11:48:57.208Z,72.07
2018-05-12T11:51:26.398Z,71.97
2018-05-12T11:53:55.480Z,72.97
2018-05-12T11:56:24.616Z,72.07
2018-05-12T11:58:53.743Z,72.57
2018-05-12T12:01:22.864Z,74.50
2018-05-12T12:03:52.063Z,74.60
2018-05-12T12:06:21.164Z,77.40
2018-05-12T12:08:50.311Z,73.10
2018-05-12T12:11:19.504Z,74.50
2018-05-12T12:13:48.600Z,80.50
2018-05-12T12:16:17.764Z,72.37
2018-05-12T12:18:46.892Z,77.17
2018-05-12T12:21:16.050Z,76.00
2018-05-12T12:23:45.231Z,76.27
2018-05-12T12:26:14.347Z,73.77
2018-05-12T12:28:43.454Z,72.10
2018-05-12T12:31:12.884Z,74.00
2018-05-12T12:33:41.993Z,76.00
2018-05-12T12:36:11.114Z,74.50
2018-05-12T12:38:40.261Z,75.83
2018-05-12T12:41:09.382Z,73.67
2018-05-12T12:43:38.529Z,74.20
2018-05-12T12:46:07.708Z,76.73
2018-05-12T12:48:36.849Z,73.97
2018-05-12T12:51:05.996Z,74.70
2018-05-12T12:53:35.109Z,75.10
2018-05-12T12:56:04.257Z,77.93
2018-05-12T12:58:33.420Z,73.63
2018-05-12T13:01:02.576Z,72.97
2018-05-12T13:03:31.741Z,79.10
2018-05-12T13:06:00.861Z,73.57
2018-05-12T13:08:29.974Z,72.70
2018-05-12T13:10:59.117Z,75.27
2018-05-12T13:13:28.228Z,72.63
2018-05-12T13:15:57.366Z,75.70
2018-05-12T13:18:26.540Z,73.07
2018-05-12T13:20:55.712Z,72.60
2018-05-12T13:23:24.876Z,73.27
2018-05-12T13:25:54.036Z,73.13
2018-05-12T13:28:23.186Z,73.43
2018-05-12T13:30:52.356Z,74.00
2018-05-12T13:33:21.488Z,71.90
2018-05-12T13:35:50.591Z,72.00
2018-05-12T13:38:20.376Z,70.77
2018-05-12T13:40:49.552Z,70.80
2018-05-12T13:43:18.785Z,74.60
2018-05-12T13:45:47.972Z,72.83
2018-05-12T13:48:17.088Z,74.43
2018-05-12T13:50:46.223Z,71.37
2018-05-12T13:53:15.392Z,71.47
2018-05-12T13:55:44.596Z,74.77
2018-05-12T13:58:13.716Z,72.63
2018-05-12T14:00:42.856Z,70.40
2018-05-12T14:03:12.005Z,73.27
2018-05-12T14:05:41.123Z,71.10
2018-05-12T14:08:10.278Z,73.87
2018-05-12T14:10:39.413Z,71.00
2018-05-12T14:13:08.537Z,70.90
2018-05-12T14:15:37.635Z,70.27
2018-05-12T14:18:06.781Z,71.40
2018-05-12T14:20:35.929Z,70.27
2018-05-12T14:23:05.072Z,71.50
2018-05-12T14:25:34.225Z,74.80
2018-05-12T14:28:03.370Z,70.37
2018-05-12T14:30:32.496Z,78.17
2018-05-12T14:33:01.670Z,72.67
2018-05-12T14:35:30.821Z,71.27
2018-05-12T14:38:00.007Z,74.50
2018-05-12T14:40:29.672Z,74.00
2018-05-12T14:42:58.876Z,71.17
2018-05-12T14:45:27.987Z,72.53
2018-05-12T14:47:57.154Z,75.87
2018-05-12T14:50:26.297Z,70.70
2018-05-12T14:52:55.403Z,71.80
2018-05-12T14:55:24.579Z,71.40
2018-05-12T14:57:53.692Z,71.47
2018-05-12T15:00:22.840Z,72.20
2018-05-12T15:02:52.003Z,72.43
2018-05-12T15:05:21.111Z,71.20
2018-05-12T15:07:50.266Z,71.60
2018-05-12T15:10:19.420Z,70.57
2018-05-12T15:12:48.534Z,71.50
2018-05-12T15:15:17.666Z,72.97
2018-05-12T15:17:46.816Z,72.37
2018-05-12T15:20:15.947Z,73.20
2018-05-12T15:22:45.057Z,70.50
2018-05-12T15:25:14.214Z,70.63
2018-05-12T15:27:43.347Z,71.17
2018-05-12T15:30:12.540Z,71.90
2018-05-12T15:32:41.688Z,72.60
2018-05-12T15:35:10.796Z,71.63
2018-05-12T15:37:39.936Z,72.83
2018-05-12T15:40:09.120Z,70.97
2018-05-12T15:42:38.257Z,72.63
2018-05-12T15:45:07.372Z,71.87
2018-05-12T15:47:36.531Z,71.00
2018-05-12T15:50:05.640Z,70.87
2018-05-12T15:52:34.789Z,71.57
2018-05-12T15:55:03.927Z,71.40
2018-05-12T15:57:33.044Z,75.27
2018-05-12T16:00:02.185Z,70.30
2018-05-12T16:02:31.305Z,74.47
2018-05-12T16:05:00.452Z,72.50
2018-05-12T16:07:29.608Z,76.37
2018-05-12T16:09:58.739Z,71.30
2018-05-12T16:12:27.921Z,71.77
2018-05-12T16:14:57.036Z,72.07
2018-05-12T16:17:26.173Z,71.37
2018-05-12T16:19:55.331Z,72.83
2018-05-12T16:22:24.448Z,71.30
2018-05-12T16:24:53.569Z,73.27
2018-05-12T16:27:22.819Z,71.50
2018-05-12T16:29:51.930Z,73.00
2018-05-12T16:32:21.064Z,71.23
2018-05-12T16:34:50.210Z,71.10
2018-05-12T16:37:19.435Z,72.47
2018-05-12T16:39:48.486Z,71.60
2018-05-12T16:42:17.662Z,71.80
2018-05-12T16:44:46.804Z,71.20
2018-05-12T16:47:15.914Z,70.90
2018-05-12T16:49:45.056Z,70.80
2018-05-12T16:52:14.181Z,70.80
2018-05-12T16:54:43.343Z,89.03
2018-05-12T16:57:12.485Z,72.13
2018-05-12T16:59:41.610Z,71.37
2018-05-12T17:02:10.722Z,70.17
2018-05-12T17:04:39.880Z,72.70
2018-05-12T17:07:08.997Z,71.80
2018-05-12T17:09:38.142Z,70.80
2018-05-12T17:12:07.280Z,71.33
2018-05-12T17:14:36.424Z,76.07
2018-05-12T17:17:05.556Z,73.57
2018-05-12T17:19:34.723Z,70.57
2018-05-12T17:22:03.860Z,74.97
2018-05-12T17:24:32.988Z,76.20
2018-05-12T17:27:02.152Z,70.60
2018-05-12T17:29:31.616Z,71.97
2018-05-12T17:32:00.741Z,71.10
2018-05-12T17:34:29.896Z,72.90
2018-05-12T17:36:59.054Z,72.83
2018-05-12T17:39:28.168Z,72.17
2018-05-12T17:41:57.276Z,72.87
2018-05-12T17:44:26.470Z,72.30
2018-05-12T17:46:55.569Z,73.97
2018-05-12T17:49:24.715Z,73.80
2018-05-12T17:51:53.866Z,72.93
2018-05-12T17:54:22.986Z,72.97
2018-05-12T17:56:52.106Z,74.43
2018-05-12T17:59:21.256Z,73.97
2018-05-12T18:01:50.383Z,73.77
2018-05-12T18:04:19.568Z,76.60
2018-05-12T18:06:48.686Z,74.73
2018-05-12T18:09:17.861Z,73.47
2018-05-12T18:11:47.025Z,73.50
2018-05-12T18:14:16.147Z,73.13
2018-05-12T18:16:45.294Z,75.30
2018-05-12T18:19:14.408Z,73.77
2018-05-12T18:21:43.524Z,72.97
2018-05-12T18:24:12.709Z,73.70
2018-05-12T18:26:41.868Z,74.60
2018-05-12T18:29:11.016Z,73.27
2018-05-12T18:31:40.190Z,73.70
2018-05-12T18:34:09.313Z,74.27
2018-05-12T18:36:38.456Z,74.73
2018-05-12T18:39:07.636Z,75.83
2018-05-12T18:41:36.770Z,74.80
2018-05-12T18:44:05.934Z,74.90
2018-05-12T18:46:35.107Z,75.07
2018-05-12T18:49:04.280Z,75.43
2018-05-12T18:51:33.421Z,75.30
2018-05-12T18:54:02.685Z,75.90
2018-05-12T18:56:31.797Z,76.40
2018-05-12T18:59:00.956Z,76.10
2018-05-12T19:01:30.076Z,74.30
2018-05-12T19:03:59.200Z,76.20
2018-05-12T19:06:28.356Z,77.10
2018-05-12T19:08:57.492Z,75.97
2018-05-12T19:11:26.608Z,74.63
2018-05-12T19:13:55.764Z,76.67
2018-05-12T19:16:24.892Z,75.67
2018-05-12T19:18:54.032Z,75.40
2018-05-12T19:21:23.192Z,74.80
2018-05-12T19:23:52.317Z,76.07
2018-05-12T19:26:21.488Z,75.67
2018-05-12T19:28:50.637Z,73.57
2018-05-12T19:31:19.769Z,75.10
2018-05-12T19:33:48.880Z,74.20
2018-05-12T19:36:18.045Z,75.63
2018-05-12T19:38:47.196Z,74.33
2018-05-12T19:41:16.386Z,73.97
2018-05-12T19:43:45.518Z,74.00
2018-05-12T19:46:14.667Z,79.90
2018-05-12T19:48:43.851Z,75.20
2018-05-12T19:51:13.561Z,75.60
2018-05-12T19:53:42.705Z,74.40
2018-05-12T19:56:11.876Z,73.27
2018-05-12T19:58:41.025Z,73.77
2018-05-12T20:01:10.152Z,77.13
2018-05-12T20:03:39.306Z,75.33
2018-05-12T20:06:08.445Z,73.17
2018-05-12T20:08:37.556Z,74.50
2018-05-12T20:11:06.750Z,74.83
2018-05-12T20:13:35.884Z,74.23
2018-05-12T20:16:05.025Z,77.00
2018-05-12T20:18:34.170Z,73.77
2018-05-12T20:21:03.309Z,73.27
2018-05-12T20:23:32.473Z,73.80
2018-05-12T20:26:01.631Z,73.10
2018-05-12T20:28:30.764Z,72.87
2018-05-12T20:30:59.930Z,74.77
2018-05-12T20:33:29.103Z,72.23
2018-05-12T20:35:58.239Z,73.00
2018-05-12T20:38:27.387Z,72.17
2018-05-12T20:40:56.565Z,75.60
2018-05-12T20:43:25.689Z,72.70
2018-05-12T20:45:54.817Z,73.53
2018-05-12T20:48:23.993Z,73.50
2018-05-12T20:53:33.802Z,77.77
2018-05-12T20:56:02.936Z,75.07
2018-05-12T20:58:32.080Z,74.47
2018-05-12T21:01:01.260Z,75.00
2018-05-12T21:03:30.391Z,76.90
2018-05-12T21:05:59.512Z,76.37
2018-05-12T21:08:28.664Z,74.90
2018-05-12T21:10:57.825Z,76.47
2018-05-12T21:13:26.967Z,76.87
2018-05-12T21:15:56.128Z,76.17
2018-05-12T21:18:25.235Z,76.30
2018-05-12T21:20:54.362Z,75.90
2018-05-12T21:23:23.514Z,76.87
2018-05-12T21:25:52.636Z,76.97
2018-05-12T21:28:21.765Z,77.43
2018-05-12T21:30:50.940Z,78.77
2018-05-12T21:33:20.069Z,78.30
2018-05-12T21:35:49.188Z,77.27
2018-05-12T21:38:18.585Z,87.03
2018-05-12T21:40:47.765Z,79.57
2018-05-12T21:43:16.883Z,76.80
2018-05-12T21:45:46.130Z,77.50
2018-05-12T21:48:15.299Z,77.73
2018-05-12T21:50:44.452Z,77.37
2018-05-12T21:53:13.589Z,79.07
2018-05-12T21:55:42.756Z,77.30
2018-05-12T21:58:11.884Z,79.40
2018-05-12T22:00:41.080Z,76.37
2018-05-12T22:03:10.244Z,80.83
2018-05-12T22:05:39.376Z,77.37
2018-05-12T22:08:08.569Z,83.07
2018-05-12T22:10:37.673Z,80.33
2018-05-12T22:13:06.795Z,83.63
2018-05-12T22:15:35.953Z,83.80
2018-05-12T22:18:05.076Z,83.00
2018-05-12T22:20:34.235Z,82.83
2018-05-12T22:23:03.400Z,82.70
2018-05-12T22:25:32.671Z,80.43
2018-05-12T22:28:01.804Z,83.47
2018-05-12T22:30:30.957Z,83.30
2018-05-12T22:33:00.068Z,83.37
2018-05-12T22:35:29.216Z,85.97
2018-05-12T22:37:58.404Z,84.87
2018-05-12T22:40:31.302Z,84.10
2018-05-12T22:43:00.485Z,85.57
2018-05-12T22:45:29.596Z,83.33
2018-05-12T22:47:58.750Z,83.57
2018-05-12T22:50:27.913Z,82.40
2018-05-12T22:52:57.026Z,80.67
2018-05-12T22:55:26.157Z,86.60
2018-05-12T22:57:55.321Z,81.80
2018-05-12T23:00:24.471Z,81.53
2018-05-12T23:02:53.581Z,83.30
2018-05-12T23:05:22.747Z,80.67
2018-05-12T23:07:51.886Z,78.47
2018-05-12T23:10:21.036Z,77.80
2018-05-12T23:12:50.155Z,80.73
2018-05-12T23:15:19.769Z,79.03
2018-05-12T23:17:48.920Z,82.17
2018-05-12T23:20:18.045Z,80.60
2018-05-12T23:22:47.213Z,76.70
2018-05-12T23:25:16.339Z,79.87
2018-05-12T23:27:45.481Z,80.97
2018-05-12T23:30:14.677Z,79.87
2018-05-12T23:32:43.844Z,79.27
2018-05-12T23:35:12.958Z,82.93
2018-05-12T23:37:42.112Z,78.70
2018-05-12T23:40:11.256Z,81.03
2018-05-12T23:42:40.374Z,79.47
2018-05-12T23:45:09.527Z,78.23
2018-05-12T23:47:38.675Z,78.87
2018-05-12T23:50:07.819Z,81.40
2018-05-12T23:52:36.969Z,83.13
2018-05-12T23:55:06.132Z,78.43
2018-05-12T23:57:35.248Z,81.87
